sensor_id;sensor_type;location;lat;lon;timestamp;temperature;humidity
65836;SHT30;52595;51.608;7.216;2022-12-24T00:01:06;9.77;99.89
65836;SHT30;52595;51.608;7.216;2022-12-24T00:03:32;9.76;99.99
65836;SHT30;52595;51.608;7.216;2022-12-24T00:05:58;9.71;99.99
65836;SHT30;52595;51.608;7.216;2022-12-24T00:08:24;9.69;99.99
65836;SHT30;52595;51.608;7.216;2022-12-24T00:10:50;9.64;99.99
65836;SHT30;52595;51.608;7.216;2022-12-24T00:13:16;9.63;99.99
65836;SHT30;52595;51.608;7.216;2022-12-24T00:15:41;9.64;99.99
65836;SHT30;52595;51.608;7.216;2022-12-24T00:18:07;9.63;99.99
65836;SHT30;52595;51.608;7.216;2022-12-24T00:20:32;9.66;99.99
65836;SHT30;52595;51.608;7.216;2022-12-24T00:22:57;9.69;99.99
65836;SHT30;52595;51.608;7.216;2022-12-24T00:25:23;9.71;99.80
65836;SHT30;52595;51.608;7.216;2022-12-24T00:27:48;9.74;99.30
65836;SHT30;52595;51.608;7.216;2022-12-24T00:30:14;9.83;98.61
65836;SHT30;52595;51.608;7.216;2022-12-24T00:32:39;9.87;98.24
65836;SHT30;52595;51.608;7.216;2022-12-24T00:35:05;9.87;97.88
65836;SHT30;52595;51.608;7.216;2022-12-24T00:37:30;9.93;97.16
65836;SHT30;52595;51.608;7.216;2022-12-24T00:39:56;9.87;97.40
65836;SHT30;52595;51.608;7.216;2022-12-24T00:42:21;9.90;97.66
65836;SHT30;52595;51.608;7.216;2022-12-24T00:44:46;9.90;97.63
65836;SHT30;52595;51.608;7.216;2022-12-24T00:47:12;9.94;97.04
65836;SHT30;52595;51.608;7.216;2022-12-24T00:49:38;10.05;95.97
65836;SHT30;52595;51.608;7.216;2022-12-24T00:52:03;10.15;95.05
65836;SHT30;52595;51.608;7.216;2022-12-24T00:54:29;10.05;96.10
65836;SHT30;52595;51.608;7.216;2022-12-24T00:56:54;10.15;94.69
65836;SHT30;52595;51.608;7.216;2022-12-24T00:59:19;10.21;93.87
65836;SHT30;52595;51.608;7.216;2022-12-24T01:01:45;10.25;93.73
65836;SHT30;52595;51.608;7.216;2022-12-24T01:04:10;10.37;92.49
65836;SHT30;52595;51.608;7.216;2022-12-24T01:06:54;10.58;91.00
65836;SHT30;52595;51.608;7.216;2022-12-24T01:09:20;10.56;91.55
65836;SHT30;52595;51.608;7.216;2022-12-24T01:11:46;10.56;91.12
65836;SHT30;52595;51.608;7.216;2022-12-24T01:14:11;10.51;91.29
65836;SHT30;52595;51.608;7.216;2022-12-24T01:16:37;10.55;90.42
65836;SHT30;52595;51.608;7.216;2022-12-24T01:19:02;10.48;90.98
65836;SHT30;52595;51.608;7.216;2022-12-24T01:21:28;10.39;91.36
65836;SHT30;52595;51.608;7.216;2022-12-24T01:23:53;10.32;91.33
65836;SHT30;52595;51.608;7.216;2022-12-24T01:26:18;10.37;90.79
65836;SHT30;52595;51.608;7.216;2022-12-24T01:28:44;10.35;90.80
65836;SHT30;52595;51.608;7.216;2022-12-24T01:31:14;10.34;91.07
65836;SHT30;52595;51.608;7.216;2022-12-24T01:33:40;10.37;91.07
65836;SHT30;52595;51.608;7.216;2022-12-24T01:36:06;10.38;90.64
65836;SHT30;52595;51.608;7.216;2022-12-24T01:38:32;10.41;91.06
65836;SHT30;52595;51.608;7.216;2022-12-24T01:40:57;10.49;90.83
65836;SHT30;52595;51.608;7.216;2022-12-24T01:43:41;10.41;91.10
65836;SHT30;52595;51.608;7.216;2022-12-24T01:46:17;10.42;91.52
65836;SHT30;52595;51.608;7.216;2022-12-24T01:48:48;10.39;91.72
65836;SHT30;52595;51.608;7.216;2022-12-24T01:56:31;10.44;91.35
65836;SHT30;52595;51.608;7.216;2022-12-24T01:59:01;10.45;91.62
65836;SHT30;52595;51.608;7.216;2022-12-24T02:01:27;10.38;92.11
65836;SHT30;52595;51.608;7.216;2022-12-24T02:03:53;10.37;91.92
65836;SHT30;52595;51.608;7.216;2022-12-24T02:06:19;10.35;92.10
65836;SHT30;52595;51.608;7.216;2022-12-24T02:08:46;10.32;92.10
65836;SHT30;52595;51.608;7.216;2022-12-24T02:11:16;10.32;92.09
65836;SHT30;52595;51.608;7.216;2022-12-24T02:13:43;10.27;92.37
65836;SHT30;52595;51.608;7.216;2022-12-24T02:32:23;10.11;91.93
65836;SHT30;52595;51.608;7.216;2022-12-24T02:34:57;10.09;91.83
65836;SHT30;52595;51.608;7.216;2022-12-24T02:37:42;10.07;92.15
65836;SHT30;52595;51.608;7.216;2022-12-24T02:40:17;10.11;92.03
65836;SHT30;52595;51.608;7.216;2022-12-24T02:42:49;10.01;92.35
65836;SHT30;52595;51.608;7.216;2022-12-24T02:45:18;9.90;92.79
65836;SHT30;52595;51.608;7.216;2022-12-24T02:47:47;9.87;92.84
65836;SHT30;52595;51.608;7.216;2022-12-24T02:50:15;9.97;92.09
65836;SHT30;52595;51.608;7.216;2022-12-24T02:52:43;9.88;92.47
65836;SHT30;52595;51.608;7.216;2022-12-24T02:55:14;9.84;92.80
65836;SHT30;52595;51.608;7.216;2022-12-24T03:00:24;9.81;92.51
65836;SHT30;52595;51.608;7.216;2022-12-24T03:05:51;9.78;92.48
65836;SHT30;52595;51.608;7.216;2022-12-24T03:11:11;9.76;92.66
65836;SHT30;52595;51.608;7.216;2022-12-24T03:13:38;9.76;92.65
65836;SHT30;52595;51.608;7.216;2022-12-24T03:16:09;9.81;92.47
65836;SHT30;52595;51.608;7.216;2022-12-24T03:18:37;9.80;92.60
65836;SHT30;52595;51.608;7.216;2022-12-24T03:21:10;9.73;92.99
65836;SHT30;52595;51.608;7.216;2022-12-24T03:23:36;9.77;92.69
65836;SHT30;52595;51.608;7.216;2022-12-24T03:26:05;9.73;92.85
65836;SHT30;52595;51.608;7.216;2022-12-24T03:28:32;9.78;92.74
65836;SHT30;52595;51.608;7.216;2022-12-24T03:31:00;9.71;93.01
65836;SHT30;52595;51.608;7.216;2022-12-24T03:33:27;9.86;92.50
65836;SHT30;52595;51.608;7.216;2022-12-24T03:35:53;9.81;92.88
65836;SHT30;52595;51.608;7.216;2022-12-24T03:38:18;9.81;92.92
65836;SHT30;52595;51.608;7.216;2022-12-24T03:40:43;9.84;92.95
65836;SHT30;52595;51.608;7.216;2022-12-24T03:43:09;9.90;92.77
65836;SHT30;52595;51.608;7.216;2022-12-24T03:45:34;9.95;92.58
65836;SHT30;52595;51.608;7.216;2022-12-24T03:48:00;9.93;92.63
65836;SHT30;52595;51.608;7.216;2022-12-24T03:50:25;9.88;93.00
65836;SHT30;52595;51.608;7.216;2022-12-24T03:52:50;9.83;93.32
65836;SHT30;52595;51.608;7.216;2022-12-24T03:55:16;9.91;92.83
65836;SHT30;52595;51.608;7.216;2022-12-24T03:57:41;9.91;93.23
65836;SHT30;52595;51.608;7.216;2022-12-24T04:00:07;9.87;93.48
65836;SHT30;52595;51.608;7.216;2022-12-24T04:02:33;9.95;93.29
65836;SHT30;52595;51.608;7.216;2022-12-24T04:04:59;9.94;93.23
65836;SHT30;52595;51.608;7.216;2022-12-24T04:07:25;9.94;93.41
65836;SHT30;52595;51.608;7.216;2022-12-24T04:09:51;9.95;93.32
65836;SHT30;52595;51.608;7.216;2022-12-24T04:12:16;9.99;93.37
65836;SHT30;52595;51.608;7.216;2022-12-24T04:14:41;9.97;93.47
65836;SHT30;52595;51.608;7.216;2022-12-24T04:17:07;9.99;93.37
65836;SHT30;52595;51.608;7.216;2022-12-24T04:19:32;9.99;93.39
65836;SHT30;52595;51.608;7.216;2022-12-24T04:21:57;9.97;93.76
65836;SHT30;52595;51.608;7.216;2022-12-24T04:24:23;9.95;93.95
65836;SHT30;52595;51.608;7.216;2022-12-24T04:26:48;9.95;93.96
65836;SHT30;52595;51.608;7.216;2022-12-24T04:29:14;9.93;94.31
65836;SHT30;52595;51.608;7.216;2022-12-24T04:31:39;9.87;94.33
65836;SHT30;52595;51.608;7.216;2022-12-24T04:34:04;9.94;94.38
65836;SHT30;52595;51.608;7.216;2022-12-24T04:36:30;9.94;94.41
65836;SHT30;52595;51.608;7.216;2022-12-24T04:38:55;9.95;94.32
65836;SHT30;52595;51.608;7.216;2022-12-24T04:41:22;9.98;94.40
65836;SHT30;52595;51.608;7.216;2022-12-24T04:43:48;9.98;94.24
65836;SHT30;52595;51.608;7.216;2022-12-24T04:46:21;9.95;94.49
65836;SHT30;52595;51.608;7.216;2022-12-24T04:48:49;9.99;94.54
65836;SHT30;52595;51.608;7.216;2022-12-24T04:51:15;9.97;94.57
65836;SHT30;52595;51.608;7.216;2022-12-24T04:53:41;9.93;94.77
65836;SHT30;52595;51.608;7.216;2022-12-24T04:56:19;9.90;94.94
65836;SHT30;52595;51.608;7.216;2022-12-24T04:58:45;9.87;95.05
65836;SHT30;52595;51.608;7.216;2022-12-24T05:01:22;9.91;95.11
65836;SHT30;52595;51.608;7.216;2022-12-24T05:03:49;9.87;95.25
65836;SHT30;52595;51.608;7.216;2022-12-24T05:06:17;9.91;95.10
65836;SHT30;52595;51.608;7.216;2022-12-24T05:08:43;9.90;95.23
65836;SHT30;52595;51.608;7.216;2022-12-24T05:11:09;9.91;95.31
65836;SHT30;52595;51.608;7.216;2022-12-24T05:13:38;9.91;95.44
65836;SHT30;52595;51.608;7.216;2022-12-24T05:16:04;9.94;95.32
65836;SHT30;52595;51.608;7.216;2022-12-24T05:18:29;9.94;95.46
65836;SHT30;52595;51.608;7.216;2022-12-24T05:20:54;9.98;95.50
65836;SHT30;52595;51.608;7.216;2022-12-24T05:23:22;9.95;95.74
65836;SHT30;52595;51.608;7.216;2022-12-24T05:28:59;9.93;96.15
65836;SHT30;52595;51.608;7.216;2022-12-24T05:31:26;9.94;96.25
65836;SHT30;52595;51.608;7.216;2022-12-24T05:33:52;9.98;96.13
65836;SHT30;52595;51.608;7.216;2022-12-24T05:36:19;9.88;96.96
65836;SHT30;52595;51.608;7.216;2022-12-24T05:38:44;9.74;98.01
65836;SHT30;52595;51.608;7.216;2022-12-24T05:41:10;9.67;98.60
65836;SHT30;52595;51.608;7.216;2022-12-24T05:43:36;9.66;98.88
65836;SHT30;52595;51.608;7.216;2022-12-24T05:46:05;9.60;99.28
65836;SHT30;52595;51.608;7.216;2022-12-24T05:48:31;9.61;99.11
65836;SHT30;52595;51.608;7.216;2022-12-24T05:50:57;9.58;99.50
65836;SHT30;52595;51.608;7.216;2022-12-24T05:53:22;9.60;99.57
65836;SHT30;52595;51.608;7.216;2022-12-24T05:55:48;9.53;99.90
65836;SHT30;52595;51.608;7.216;2022-12-24T05:58:14;9.57;99.75
65836;SHT30;52595;51.608;7.216;2022-12-24T06:00:40;9.58;99.58
65836;SHT30;52595;51.608;7.216;2022-12-24T06:03:05;9.64;99.53
65836;SHT30;52595;51.608;7.216;2022-12-24T06:05:30;9.60;99.51
65836;SHT30;52595;51.608;7.216;2022-12-24T06:07:56;9.66;99.35
65836;SHT30;52595;51.608;7.216;2022-12-24T06:10:21;9.67;99.16
65836;SHT30;52595;51.608;7.216;2022-12-24T06:12:47;9.73;98.78
65836;SHT30;52595;51.608;7.216;2022-12-24T06:15:12;9.71;99.14
65836;SHT30;52595;51.608;7.216;2022-12-24T06:17:38;9.70;98.69
65836;SHT30;52595;51.608;7.216;2022-12-24T06:20:04;9.70;98.63
65836;SHT30;52595;51.608;7.216;2022-12-24T06:22:29;9.70;98.61
65836;SHT30;52595;51.608;7.216;2022-12-24T06:24:55;9.83;97.87
65836;SHT30;52595;51.608;7.216;2022-12-24T06:27:20;9.91;97.40
65836;SHT30;52595;51.608;7.216;2022-12-24T06:29:46;9.94;97.22
65836;SHT30;52595;51.608;7.216;2022-12-24T06:32:11;9.98;97.09
65836;SHT30;52595;51.608;7.216;2022-12-24T06:34:36;9.99;96.96
65836;SHT30;52595;51.608;7.216;2022-12-24T06:37:02;9.99;96.76
65836;SHT30;52595;51.608;7.216;2022-12-24T06:39:27;10.04;96.38
65836;SHT30;52595;51.608;7.216;2022-12-24T06:41:53;10.07;96.32
65836;SHT30;52595;51.608;7.216;2022-12-24T06:44:18;10.04;96.30
65836;SHT30;52595;51.608;7.216;2022-12-24T06:46:43;10.09;96.00
65836;SHT30;52595;51.608;7.216;2022-12-24T06:49:09;10.09;96.01
65836;SHT30;52595;51.608;7.216;2022-12-24T06:51:34;10.09;95.98
65836;SHT30;52595;51.608;7.216;2022-12-24T06:53:59;10.12;95.62
65836;SHT30;52595;51.608;7.216;2022-12-24T06:56:25;10.17;95.38
65836;SHT30;52595;51.608;7.216;2022-12-24T06:58:51;10.12;95.44
65836;SHT30;52595;51.608;7.216;2022-12-24T07:01:17;10.21;94.95
65836;SHT30;52595;51.608;7.216;2022-12-24T07:03:43;10.17;95.25
65836;SHT30;52595;51.608;7.216;2022-12-24T07:06:15;10.15;95.21
65836;SHT30;52595;51.608;7.216;2022-12-24T07:08:41;10.09;95.39
65836;SHT30;52595;51.608;7.216;2022-12-24T07:11:07;10.11;95.14
65836;SHT30;52595;51.608;7.216;2022-12-24T07:13:32;10.17;94.93
65836;SHT30;52595;51.608;7.216;2022-12-24T07:15:59;10.19;94.93
65836;SHT30;52595;51.608;7.216;2022-12-24T07:18:25;10.21;94.57
65836;SHT30;52595;51.608;7.216;2022-12-24T07:20:50;10.22;94.79
65836;SHT30;52595;51.608;7.216;2022-12-24T07:23:16;10.19;94.83
65836;SHT30;52595;51.608;7.216;2022-12-24T07:25:42;10.22;94.72
65836;SHT30;52595;51.608;7.216;2022-12-24T07:28:07;10.28;94.20
65836;SHT30;52595;51.608;7.216;2022-12-24T07:30:33;10.29;94.38
65836;SHT30;52595;51.608;7.216;2022-12-24T07:32:58;10.28;94.60
65836;SHT30;52595;51.608;7.216;2022-12-24T07:35:24;10.29;94.33
65836;SHT30;52595;51.608;7.216;2022-12-24T07:37:49;10.22;94.27
65836;SHT30;52595;51.608;7.216;2022-12-24T07:40:14;10.27;94.07
65836;SHT30;52595;51.608;7.216;2022-12-24T07:42:40;10.25;94.20
65836;SHT30;52595;51.608;7.216;2022-12-24T07:45:06;10.27;94.20
65836;SHT30;52595;51.608;7.216;2022-12-24T07:47:31;10.25;94.11
65836;SHT30;52595;51.608;7.216;2022-12-24T07:49:57;10.24;94.15
65836;SHT30;52595;51.608;7.216;2022-12-24T07:52:22;10.27;93.89
65836;SHT30;52595;51.608;7.216;2022-12-24T07:54:47;10.22;93.86
65836;SHT30;52595;51.608;7.216;2022-12-24T07:57:13;10.29;93.66
65836;SHT30;52595;51.608;7.216;2022-12-24T07:59:38;10.31;93.17
65836;SHT30;52595;51.608;7.216;2022-12-24T08:02:04;10.27;93.22
65836;SHT30;52595;51.608;7.216;2022-12-24T08:04:32;10.28;93.24
65836;SHT30;52595;51.608;7.216;2022-12-24T08:07:01;10.27;93.41
65836;SHT30;52595;51.608;7.216;2022-12-24T08:09:26;10.28;93.17
65836;SHT30;52595;51.608;7.216;2022-12-24T08:11:52;10.22;93.65
65836;SHT30;52595;51.608;7.216;2022-12-24T08:14:17;10.29;93.15
65836;SHT30;52595;51.608;7.216;2022-12-24T08:16:42;10.31;92.81
65836;SHT30;52595;51.608;7.216;2022-12-24T08:19:08;10.31;92.96
65836;SHT30;52595;51.608;7.216;2022-12-24T08:21:33;10.34;93.04
65836;SHT30;52595;51.608;7.216;2022-12-24T08:23:59;10.37;93.00
65836;SHT30;52595;51.608;7.216;2022-12-24T08:26:24;10.35;92.86
65836;SHT30;52595;51.608;7.216;2022-12-24T08:28:49;10.38;92.79
65836;SHT30;52595;51.608;7.216;2022-12-24T08:31:15;10.38;92.69
65836;SHT30;52595;51.608;7.216;2022-12-24T08:33:40;10.37;92.42
65836;SHT30;52595;51.608;7.216;2022-12-24T08:36:06;10.38;92.55
65836;SHT30;52595;51.608;7.216;2022-12-24T08:38:31;10.39;92.43
65836;SHT30;52595;51.608;7.216;2022-12-24T08:40:57;10.44;92.54
65836;SHT30;52595;51.608;7.216;2022-12-24T08:43:22;10.41;92.46
65836;SHT30;52595;51.608;7.216;2022-12-24T08:45:49;10.44;92.44
65836;SHT30;52595;51.608;7.216;2022-12-24T08:48:15;10.38;92.42
65836;SHT30;52595;51.608;7.216;2022-12-24T08:50:41;10.41;92.48
65836;SHT30;52595;51.608;7.216;2022-12-24T08:53:08;10.44;92.28
65836;SHT30;52595;51.608;7.216;2022-12-24T08:55:34;10.44;92.41
65836;SHT30;52595;51.608;7.216;2022-12-24T08:57:59;10.42;92.50
65836;SHT30;52595;51.608;7.216;2022-12-24T09:00:25;10.44;91.99
65836;SHT30;52595;51.608;7.216;2022-12-24T09:02:51;10.42;92.14
65836;SHT30;52595;51.608;7.216;2022-12-24T09:05:16;10.44;92.18
65836;SHT30;52595;51.608;7.216;2022-12-24T09:07:42;10.46;92.00
65836;SHT30;52595;51.608;7.216;2022-12-24T09:10:08;10.49;91.91
65836;SHT30;52595;51.608;7.216;2022-12-24T09:12:34;10.49;91.82
65836;SHT30;52595;51.608;7.216;2022-12-24T09:14:59;10.51;91.99
65836;SHT30;52595;51.608;7.216;2022-12-24T09:17:24;10.53;92.09
65836;SHT30;52595;51.608;7.216;2022-12-24T09:19:50;10.56;92.08
65836;SHT30;52595;51.608;7.216;2022-12-24T09:22:15;10.61;91.98
65836;SHT30;52595;51.608;7.216;2022-12-24T09:24:41;10.59;91.93
65836;SHT30;52595;51.608;7.216;2022-12-24T09:27:07;10.61;92.25
65836;SHT30;52595;51.608;7.216;2022-12-24T09:29:32;10.58;92.22
65836;SHT30;52595;51.608;7.216;2022-12-24T09:31:58;10.59;91.92
65836;SHT30;52595;51.608;7.216;2022-12-24T09:34:24;10.63;92.07
65836;SHT30;52595;51.608;7.216;2022-12-24T09:36:50;10.58;92.52
65836;SHT30;52595;51.608;7.216;2022-12-24T09:39:18;10.61;92.30
65836;SHT30;52595;51.608;7.216;2022-12-24T09:44:46;10.66;92.46
65836;SHT30;52595;51.608;7.216;2022-12-24T09:47:36;10.66;92.26
65836;SHT30;52595;51.608;7.216;2022-12-24T09:50:25;10.65;92.18
65836;SHT30;52595;51.608;7.216;2022-12-24T09:52:52;10.66;92.64
65836;SHT30;52595;51.608;7.216;2022-12-24T09:55:23;10.68;92.28
65836;SHT30;52595;51.608;7.216;2022-12-24T09:57:51;10.72;91.92
65836;SHT30;52595;51.608;7.216;2022-12-24T10:00:25;10.73;91.96
65836;SHT30;52595;51.608;7.216;2022-12-24T10:02:51;10.75;91.96
65836;SHT30;52595;51.608;7.216;2022-12-24T10:05:25;10.73;91.85
65836;SHT30;52595;51.608;7.216;2022-12-24T10:08:39;10.75;91.45
65836;SHT30;52595;51.608;7.216;2022-12-24T10:11:47;10.84;91.28
65836;SHT30;52595;51.608;7.216;2022-12-24T10:22:17;10.96;91.28
65836;SHT30;52595;51.608;7.216;2022-12-24T10:27:37;10.96;91.76
65836;SHT30;52595;51.608;7.216;2022-12-24T10:30:17;11.02;91.61
65836;SHT30;52595;51.608;7.216;2022-12-24T10:32:48;11.02;91.24
65836;SHT30;52595;51.608;7.216;2022-12-24T10:37:41;11.37;90.13
65836;SHT30;52595;51.608;7.216;2022-12-24T10:40:15;11.28;90.54
65836;SHT30;52595;51.608;7.216;2022-12-24T10:42:43;11.36;90.48
65836;SHT30;52595;51.608;7.216;2022-12-24T10:45:14;11.31;90.41
65836;SHT30;52595;51.608;7.216;2022-12-24T10:47:41;11.24;89.88
65836;SHT30;52595;51.608;7.216;2022-12-24T10:51:01;11.10;90.45
65836;SHT30;52595;51.608;7.216;2022-12-24T10:53:47;11.00;90.77
65836;SHT30;52595;51.608;7.216;2022-12-24T10:56:15;10.96;90.75
65836;SHT30;52595;51.608;7.216;2022-12-24T10:58:51;11.00;90.93
65836;SHT30;52595;51.608;7.216;2022-12-24T11:01:18;11.00;90.42
65836;SHT30;52595;51.608;7.216;2022-12-24T11:03:44;11.00;90.84
65836;SHT30;52595;51.608;7.216;2022-12-24T11:06:14;10.97;90.72
65836;SHT30;52595;51.608;7.216;2022-12-24T11:08:43;10.99;90.70
65836;SHT30;52595;51.608;7.216;2022-12-24T11:11:15;10.88;91.88
65836;SHT30;52595;51.608;7.216;2022-12-24T11:16:26;10.82;91.76
65836;SHT30;52595;51.608;7.216;2022-12-24T11:18:54;10.69;92.62
65836;SHT30;52595;51.608;7.216;2022-12-24T11:21:27;10.58;93.08
65836;SHT30;52595;51.608;7.216;2022-12-24T11:23:58;10.61;92.47
65836;SHT30;52595;51.608;7.216;2022-12-24T11:26:26;10.63;92.71
65836;SHT30;52595;51.608;7.216;2022-12-24T11:29:24;10.71;92.74
65836;SHT30;52595;51.608;7.216;2022-12-24T11:31:51;10.80;92.46
65836;SHT30;52595;51.608;7.216;2022-12-24T11:34:25;10.84;91.56
65836;SHT30;52595;51.608;7.216;2022-12-24T11:36:53;10.84;91.81
65836;SHT30;52595;51.608;7.216;2022-12-24T11:39:24;10.88;91.73
65836;SHT30;52595;51.608;7.216;2022-12-24T11:41:52;10.86;91.56
65836;SHT30;52595;51.608;7.216;2022-12-24T11:44:27;10.93;91.04
65836;SHT30;52595;51.608;7.216;2022-12-24T11:46:54;11.09;91.09
65836;SHT30;52595;51.608;7.216;2022-12-24T11:49:30;11.33;90.73
65836;SHT30;52595;51.608;7.216;2022-12-24T11:57:22;11.12;90.11
65836;SHT30;52595;51.608;7.216;2022-12-24T11:59:51;11.22;89.45
65836;SHT30;52595;51.608;7.216;2022-12-24T12:02:36;11.14;89.69
65836;SHT30;52595;51.608;7.216;2022-12-24T12:05:06;11.31;89.75
65836;SHT30;52595;51.608;7.216;2022-12-24T12:07:34;11.34;89.55
65836;SHT30;52595;51.608;7.216;2022-12-24T12:10:18;11.19;88.63
65836;SHT30;52595;51.608;7.216;2022-12-24T12:15:32;11.16;88.90
65836;SHT30;52595;51.608;7.216;2022-12-24T12:23:01;11.19;88.86
65836;SHT30;52595;51.608;7.216;2022-12-24T12:25:42;11.16;88.79
65836;SHT30;52595;51.608;7.216;2022-12-24T12:28:43;11.13;88.86
65836;SHT30;52595;51.608;7.216;2022-12-24T12:31:14;11.02;89.10
65836;SHT30;52595;51.608;7.216;2022-12-24T12:33:45;10.96;89.39
65836;SHT30;52595;51.608;7.216;2022-12-24T12:36:16;10.97;89.07
65836;SHT30;52595;51.608;7.216;2022-12-24T12:38:44;10.96;89.20
65836;SHT30;52595;51.608;7.216;2022-12-24T12:44:38;11.03;88.96
65836;SHT30;52595;51.608;7.216;2022-12-24T12:47:30;11.06;89.06
65836;SHT30;52595;51.608;7.216;2022-12-24T12:50:19;11.14;88.67
65836;SHT30;52595;51.608;7.216;2022-12-24T12:53:10;11.17;88.63
65836;SHT30;52595;51.608;7.216;2022-12-24T12:56:07;11.13;88.51
65836;SHT30;52595;51.608;7.216;2022-12-24T12:58:43;11.04;88.52
65836;SHT30;52595;51.608;7.216;2022-12-24T13:01:16;11.06;88.66
65836;SHT30;52595;51.608;7.216;2022-12-24T13:04:20;11.17;88.18
65836;SHT30;52595;51.608;7.216;2022-12-24T13:07:39;11.20;88.01
65836;SHT30;52595;51.608;7.216;2022-12-24T13:10:27;11.20;88.18
65836;SHT30;52595;51.608;7.216;2022-12-24T13:13:14;11.28;88.16
65836;SHT30;52595;51.608;7.216;2022-12-24T13:18:43;11.17;87.99
65836;SHT30;52595;51.608;7.216;2022-12-24T13:21:21;11.07;88.36
65836;SHT30;52595;51.608;7.216;2022-12-24T13:23:48;11.17;87.86
65836;SHT30;52595;51.608;7.216;2022-12-24T13:26:14;11.20;87.83
65836;SHT30;52595;51.608;7.216;2022-12-24T13:28:41;11.19;87.70
65836;SHT30;52595;51.608;7.216;2022-12-24T13:33:45;11.17;87.15
65836;SHT30;52595;51.608;7.216;2022-12-24T13:36:15;11.36;86.77
65836;SHT30;52595;51.608;7.216;2022-12-24T13:38:49;11.20;86.93
65836;SHT30;52595;51.608;7.216;2022-12-24T13:46:58;11.28;86.00
65836;SHT30;52595;51.608;7.216;2022-12-24T13:49:36;11.43;85.94
65836;SHT30;52595;51.608;7.216;2022-12-24T13:54:46;11.44;85.08
65836;SHT30;52595;51.608;7.216;2022-12-24T14:00:04;11.36;85.60
65836;SHT30;52595;51.608;7.216;2022-12-24T14:02:34;11.30;85.95
65836;SHT30;52595;51.608;7.216;2022-12-24T14:05:05;11.23;86.18
65836;SHT30;52595;51.608;7.216;2022-12-24T14:07:33;11.16;86.25
65836;SHT30;52595;51.608;7.216;2022-12-24T14:10:00;11.07;86.33
65836;SHT30;52595;51.608;7.216;2022-12-24T14:12:47;10.96;86.70
65836;SHT30;52595;51.608;7.216;2022-12-24T14:18:17;10.86;86.24
65836;SHT30;52595;51.608;7.216;2022-12-24T14:20:48;10.79;85.32
65836;SHT30;52595;51.608;7.216;2022-12-24T14:23:32;10.75;85.43
65836;SHT30;52595;51.608;7.216;2022-12-24T14:26:01;10.72;84.88
65836;SHT30;52595;51.608;7.216;2022-12-24T14:28:35;10.75;84.68
65836;SHT30;52595;51.608;7.216;2022-12-24T14:31:04;10.59;85.71
65836;SHT30;52595;51.608;7.216;2022-12-24T14:33:32;10.58;85.70
65836;SHT30;52595;51.608;7.216;2022-12-24T14:35:58;10.48;86.30
65836;SHT30;52595;51.608;7.216;2022-12-24T14:38:25;10.48;86.29
65836;SHT30;52595;51.608;7.216;2022-12-24T14:41:15;10.39;86.83
65836;SHT30;52595;51.608;7.216;2022-12-24T14:46:37;10.29;87.15
65836;SHT30;52595;51.608;7.216;2022-12-24T14:52:09;10.22;87.50
65836;SHT30;52595;51.608;7.216;2022-12-24T14:54:39;10.19;87.68
65836;SHT30;52595;51.608;7.216;2022-12-24T14:59:51;10.09;88.06
65836;SHT30;52595;51.608;7.216;2022-12-24T15:02:46;10.02;88.42
65836;SHT30;52595;51.608;7.216;2022-12-24T15:05:23;9.99;88.55
65836;SHT30;52595;51.608;7.216;2022-12-24T15:07:58;9.88;88.82
65836;SHT30;52595;51.608;7.216;2022-12-24T15:10:28;9.81;89.23
65836;SHT30;52595;51.608;7.216;2022-12-24T15:12:56;9.83;89.30
65836;SHT30;52595;51.608;7.216;2022-12-24T15:15:22;9.74;89.54
65836;SHT30;52595;51.608;7.216;2022-12-24T15:17:48;9.70;89.75
65836;SHT30;52595;51.608;7.216;2022-12-24T15:20:16;9.67;89.93
65836;SHT30;52595;51.608;7.216;2022-12-24T15:22:43;9.74;89.68
65836;SHT30;52595;51.608;7.216;2022-12-24T15:25:35;9.69;89.75
65836;SHT30;52595;51.608;7.216;2022-12-24T15:28:00;9.74;89.45
65836;SHT30;52595;51.608;7.216;2022-12-24T15:30:27;9.69;89.46
65836;SHT30;52595;51.608;7.216;2022-12-24T15:32:55;9.61;89.51
65836;SHT30;52595;51.608;7.216;2022-12-24T15:35:44;9.66;89.04
65836;SHT30;52595;51.608;7.216;2022-12-24T15:38:30;9.63;89.16
65836;SHT30;52595;51.608;7.216;2022-12-24T15:40:57;9.51;89.44
65836;SHT30;52595;51.608;7.216;2022-12-24T15:43:23;9.46;89.63
65836;SHT30;52595;51.608;7.216;2022-12-24T15:45:49;9.37;89.82
65836;SHT30;52595;51.608;7.216;2022-12-24T15:48:25;9.30;90.08
65836;SHT30;52595;51.608;7.216;2022-12-24T15:51:01;9.29;90.19
65836;SHT30;52595;51.608;7.216;2022-12-24T15:53:32;9.33;89.99
65836;SHT30;52595;51.608;7.216;2022-12-24T15:58:42;9.09;90.56
65836;SHT30;52595;51.608;7.216;2022-12-24T16:03:38;8.78;91.64
65836;SHT30;52595;51.608;7.216;2022-12-24T16:06:09;8.61;91.96
65836;SHT30;52595;51.608;7.216;2022-12-24T16:08:40;8.45;92.78
65836;SHT30;52595;51.608;7.216;2022-12-24T16:11:15;8.33;93.05
65836;SHT30;52595;51.608;7.216;2022-12-24T16:14:21;8.14;93.51
65836;SHT30;52595;51.608;7.216;2022-12-24T16:16:48;8.03;94.44
65836;SHT30;52595;51.608;7.216;2022-12-24T16:19:20;8.08;94.76
65836;SHT30;52595;51.608;7.216;2022-12-24T16:21:51;8.04;94.76
65836;SHT30;52595;51.608;7.216;2022-12-24T16:24:23;8.04;95.11
65836;SHT30;52595;51.608;7.216;2022-12-24T16:26:50;7.89;94.98
65836;SHT30;52595;51.608;7.216;2022-12-24T16:29:16;7.76;95.68
65836;SHT30;52595;51.608;7.216;2022-12-24T16:31:52;7.89;95.80
65836;SHT30;52595;51.608;7.216;2022-12-24T16:34:20;7.82;95.79
65836;SHT30;52595;51.608;7.216;2022-12-24T16:36:47;7.82;95.95
65836;SHT30;52595;51.608;7.216;2022-12-24T16:39:19;7.70;95.86
65836;SHT30;52595;51.608;7.216;2022-12-24T16:41:49;7.65;96.49
65836;SHT30;52595;51.608;7.216;2022-12-24T16:44:33;7.59;96.50
65836;SHT30;52595;51.608;7.216;2022-12-24T16:46:59;7.49;97.03
65836;SHT30;52595;51.608;7.216;2022-12-24T16:49:25;7.36;97.03
65836;SHT30;52595;51.608;7.216;2022-12-24T16:51:51;7.31;97.45
65836;SHT30;52595;51.608;7.216;2022-12-24T16:54:16;7.25;97.75
65836;SHT30;52595;51.608;7.216;2022-12-24T16:56:43;7.18;98.07
65836;SHT30;52595;51.608;7.216;2022-12-24T16:59:17;7.25;98.30
65836;SHT30;52595;51.608;7.216;2022-12-24T17:01:43;7.42;98.06
65836;SHT30;52595;51.608;7.216;2022-12-24T17:04:09;7.45;97.82
65836;SHT30;52595;51.608;7.216;2022-12-24T17:06:34;7.49;97.62
65836;SHT30;52595;51.608;7.216;2022-12-24T17:09:00;7.53;97.24
65836;SHT30;52595;51.608;7.216;2022-12-24T17:11:25;7.51;97.05
65836;SHT30;52595;51.608;7.216;2022-12-24T17:13:51;7.31;96.98
65836;SHT30;52595;51.608;7.216;2022-12-24T17:16:16;7.22;97.67
65836;SHT30;52595;51.608;7.216;2022-12-24T17:18:41;7.33;97.77
65836;SHT30;52595;51.608;7.216;2022-12-24T17:21:08;7.65;97.42
65836;SHT30;52595;51.608;7.216;2022-12-24T17:23:35;7.77;96.52
65836;SHT30;52595;51.608;7.216;2022-12-24T17:26:00;7.79;96.17
65836;SHT30;52595;51.608;7.216;2022-12-24T17:28:26;7.77;96.08
65836;SHT30;52595;51.608;7.216;2022-12-24T17:30:51;7.72;96.46
65836;SHT30;52595;51.608;7.216;2022-12-24T17:33:16;7.73;96.59